Dan L — WDG4449 — position and weather

sailwx.info

Track history (hours):
 
Tides and Currents Weather Stations Pressure Air Temp Water Temp Dewpoint Dewpoint Depression Visibility Wind Speed Wind Dir Waves Ship Positions

Dan L

Owner: Enterprise Marine Services, LLC, San Antonio, TX. More information available from US FCC via Universal Licensing System and Coast Guard Vessel Documentation Center.

Last reported at 2017-Nov-17 05:54 UTC. Time now 2017-Nov-19 16:18 UTC.
Position N 29°57' W 090°23'.

Length 34 m; draft 3 m.

Type: Tug. MMSI: 367536660.

Date/timePositionNaut miles runAvg speedWind from/ knotsBaromVisibWave heightAir tempDewpointWater temp
2017-Nov-17 05:54N 29°57' W 090°23'  
2017-Nov-12 02:11N 29°51' W 091°56'1 5.9
2017-Nov-12 01:59N 29°50' W 091°58'4 5.8
2017-Nov-12 01:21N 29°49' W 092°02'2 6.2
2017-Nov-12 00:59N 29°48' W 092°04'14 4.1
2017-Nov-11 21:39N 29°50' W 092°20'0 0.0
2017-Nov-11 21:29N 29°50' W 092°20'136 4.6
2017-Nov-10 16:08N 29°34' W 094°55'1 9.0
2017-Nov-10 16:01N 29°34' W 094°56'4 7.8
2017-Nov-10 15:30N 29°38' W 094°58'4 7.6
2017-Nov-10 15:01N 29°41' W 094°59'3 6.5
2017-Nov-10 14:30N 29°44' W 095°02'4 2.1
2017-Nov-10 12:50N 29°46' W 095°05'0 0.1
2017-Nov-10 12:21N 29°46' W 095°05'1 3.4
2017-Nov-10 12:00N 29°46' W 095°06'1 1.3
2017-Nov-10 11:30N 29°45' W 095°06'0 0.7
2017-Nov-10 11:00N 29°46' W 095°06'0 0.0
2017-Nov-10 09:42N 29°46' W 095°06'0 0.0
2017-Nov-10 09:30N 29°46' W 095°06'0 0.0
2017-Nov-10 08:58N 29°46' W 095°06'0 0.0
2017-Nov-10 08:00N 29°46' W 095°06'1 1.3
2017-Nov-10 07:30N 29°45' W 095°06'0 0.6
2017-Nov-10 06:49N 29°46' W 095°06'2 4.5
2017-Nov-10 06:29N 29°47' W 095°04'1 0.9
2017-Nov-10 05:51N 29°47' W 095°05'1 1.0
2017-Nov-10 05:18N 29°47' W 095°04'1 4.4
2017-Nov-10 05:01N 29°46' W 095°05'1 1.0
2017-Nov-10 04:14N 29°46' W 095°06'1 3.2
2017-Nov-10 03:59N 29°46' W 095°05'1 1.0
2017-Nov-10 02:37N 29°47' W 095°05'1 1.7
2017-Nov-10 01:56N 29°46' W 095°05'1 2.4
2017-Nov-10 01:28N 29°46' W 095°06'0 0.1
2017-Nov-10 00:57N 29°46' W 095°06'1 1.8
2017-Nov-10 00:29N 29°46' W 095°05'1 1.0
2017-Nov-09 23:26N 29°47' W 095°05'2 5.7
2017-Nov-09 23:00N 29°44' W 095°04'3 5.7
2017-Nov-09 22:30N 29°42' W 095°01'2 3.7
2017-Nov-09 22:00N 29°41' W 094°60'0 1.0
2017-Nov-09 21:30N 29°41' W 094°59'3 6.9
2017-Nov-09 21:00N 29°44' W 095°02'4 0.6
2017-Nov-09 13:43N 29°47' W 095°05'0 0.8
2017-Nov-09 13:24N 29°47' W 095°05'1 2.3
2017-Nov-09 13:00N 29°46' W 095°05'1 0.0
2017-Nov-08 09:33N 29°47' W 095°04'0 6.1
2017-Nov-08 09:28N 29°46' W 095°05'2 3.3
2017-Nov-08 08:51N 29°45' W 095°06'0 0.5
2017-Nov-08 08:24N 29°45' W 095°06'2 4.1
2017-Nov-08 08:00N 29°46' W 095°05'1 0.3
2017-Nov-08 03:20N 29°47' W 095°05'0 0.0
2017-Nov-07 18:35N 29°47' W 095°05'1 1.4
2017-Nov-07 18:11N 29°47' W 095°04'1 3.2
2017-Nov-07 17:50N 29°46' W 095°05'0 0.1
2017-Nov-07 17:19N 29°46' W 095°05'0 0.1
2017-Nov-07 17:00N 29°46' W 095°05'1 2.3
2017-Nov-07 16:30N 29°45' W 095°04'3 6.4
2017-Nov-07 16:00N 29°43' W 095°01'3 6.9
2017-Nov-07 15:30N 29°40' W 094°59'4 8.5
2017-Nov-07 15:00N 29°36' W 094°57'4 8.5
2017-Nov-07 14:30N 29°33' W 094°54'  
Track history (hours):
 
Tides and Currents Weather Stations Pressure Air Temp Water Temp Dewpoint Dewpoint Depression Visibility Wind Speed Wind Dir Waves Ship Positions

Dan L

Owner: Enterprise Marine Services, LLC, San Antonio, TX. More information available from US FCC via Universal Licensing System and Coast Guard Vessel Documentation Center.

Last reported at 2017-Nov-17 05:54 UTC. Time now 2017-Nov-19 16:18 UTC.
Position N 29°57' W 090°23'.

Length 34 m; draft 3 m.

Type: Tug. MMSI: 367536660.

Date/timePositionNaut miles runAvg speedWind from/ knotsBaromVisibWave heightAir tempDewpointWater temp
2017-Nov-17 05:54N 29°57' W 090°23'  
2017-Nov-12 02:11N 29°51' W 091°56'1 5.9
2017-Nov-12 01:59N 29°50' W 091°58'4 5.8
2017-Nov-12 01:21N 29°49' W 092°02'2 6.2
2017-Nov-12 00:59N 29°48' W 092°04'14 4.1
2017-Nov-11 21:39N 29°50' W 092°20'0 0.0
2017-Nov-11 21:29N 29°50' W 092°20'136 4.6
2017-Nov-10 16:08N 29°34' W 094°55'1 9.0
2017-Nov-10 16:01N 29°34' W 094°56'4 7.8
2017-Nov-10 15:30N 29°38' W 094°58'4 7.6
2017-Nov-10 15:01N 29°41' W 094°59'3 6.5
2017-Nov-10 14:30N 29°44' W 095°02'4 2.1
2017-Nov-10 12:50N 29°46' W 095°05'0 0.1
2017-Nov-10 12:21N 29°46' W 095°05'1 3.4
2017-Nov-10 12:00N 29°46' W 095°06'1 1.3
2017-Nov-10 11:30N 29°45' W 095°06'0 0.7
2017-Nov-10 11:00N 29°46' W 095°06'0 0.0
2017-Nov-10 09:42N 29°46' W 095°06'0 0.0
2017-Nov-10 09:30N 29°46' W 095°06'0 0.0
2017-Nov-10 08:58N 29°46' W 095°06'0 0.0
2017-Nov-10 08:00N 29°46' W 095°06'1 1.3
2017-Nov-10 07:30N 29°45' W 095°06'0 0.6
2017-Nov-10 06:49N 29°46' W 095°06'2 4.5
2017-Nov-10 06:29N 29°47' W 095°04'1 0.9
2017-Nov-10 05:51N 29°47' W 095°05'1 1.0
2017-Nov-10 05:18N 29°47' W 095°04'1 4.4
2017-Nov-10 05:01N 29°46' W 095°05'1 1.0
2017-Nov-10 04:14N 29°46' W 095°06'1 3.2
2017-Nov-10 03:59N 29°46' W 095°05'1 1.0
2017-Nov-10 02:37N 29°47' W 095°05'1 1.7
2017-Nov-10 01:56N 29°46' W 095°05'1 2.4
2017-Nov-10 01:28N 29°46' W 095°06'0 0.1
2017-Nov-10 00:57N 29°46' W 095°06'1 1.8
2017-Nov-10 00:29N 29°46' W 095°05'1 1.0
2017-Nov-09 23:26N 29°47' W 095°05'2 5.7
2017-Nov-09 23:00N 29°44' W 095°04'3 5.7
2017-Nov-09 22:30N 29°42' W 095°01'2 3.7
2017-Nov-09 22:00N 29°41' W 094°60'0 1.0
2017-Nov-09 21:30N 29°41' W 094°59'3 6.9
2017-Nov-09 21:00N 29°44' W 095°02'4 0.6
2017-Nov-09 13:43N 29°47' W 095°05'0 0.8
2017-Nov-09 13:24N 29°47' W 095°05'1 2.3
2017-Nov-09 13:00N 29°46' W 095°05'1 0.0
2017-Nov-08 09:33N 29°47' W 095°04'0 6.1
2017-Nov-08 09:28N 29°46' W 095°05'2 3.3
2017-Nov-08 08:51N 29°45' W 095°06'0 0.5
2017-Nov-08 08:24N 29°45' W 095°06'2 4.1
2017-Nov-08 08:00N 29°46' W 095°05'1 0.3
2017-Nov-08 03:20N 29°47' W 095°05'0 0.0
2017-Nov-07 18:35N 29°47' W 095°05'1 1.4
2017-Nov-07 18:11N 29°47' W 095°04'1 3.2
2017-Nov-07 17:50N 29°46' W 095°05'0 0.1
2017-Nov-07 17:19N 29°46' W 095°05'0 0.1
2017-Nov-07 17:00N 29°46' W 095°05'1 2.3
2017-Nov-07 16:30N 29°45' W 095°04'3 6.4
2017-Nov-07 16:00N 29°43' W 095°01'3 6.9
2017-Nov-07 15:30N 29°40' W 094°59'4 8.5
2017-Nov-07 15:00N 29°36' W 094°57'4 8.5
2017-Nov-07 14:30N 29°33' W 094°54'  

Dump ship's entire track history